Time;durP1;ratioP1;P1;durP2;ratioP2;P2;SDS_P1;SDS_P2;PMS_P1;PMS_P2;Temp;Humidity;BMP_temperature;BMP_pressure;BME280_temperature;BME280_humidity;BME280_pressure;Samples;Min_cycle;Max_cycle;Signal;HPM_P1;HPM_P2
2022/06/21 00:03:08;;;;;;;7.90;7.10;;;;;;;;;;10267322;28;20852;-80
2022/06/21 00:08:15;;;;;;;9.13;6.90;;;;;;;;;;10257560;28;20429;-82
2022/06/21 00:13:19;;;;;;;7.43;6.70;;;;;;;;;;10256232;28;20456;-81
2022/06/21 00:18:25;;;;;;;7.00;6.32;;;;;;;;;;10261154;28;20420;-82
2022/06/21 00:23:30;;;;;;;7.25;6.40;;;;;;;;;;10260649;28;20461;-81
2022/06/21 00:28:32;;;;;;;7.32;6.50;;;;;;;;;;10260130;28;20828;-81
2022/06/21 00:33:35;;;;;;;7.00;6.30;;;;;;;;;;10261545;28;20426;-82
2022/06/21 00:38:37;;;;;;;8.90;6.72;;;;;;;;;;10261357;28;20515;-81
2022/06/21 00:43:43;;;;;;;7.17;6.47;;;;;;;;;;10255971;28;20423;-83
2022/06/21 00:48:48;;;;;;;7.43;6.50;;;;;;;;;;10263948;28;20522;-82
2022/06/21 00:53:54;;;;;;;7.63;6.90;;;;;;;;;;10269176;28;21679;-83
2022/06/21 00:58:56;;;;;;;9.53;7.30;;;;;;;;;;10266679;28;20969;-84
2022/06/21 01:04:04;;;;;;;9.38;6.88;;;;;;;;;;10251307;28;20793;-83
2022/06/21 01:09:14;;;;;;;9.52;7.78;;;;;;;;;;10268453;28;20403;-83
2022/06/21 01:14:19;;;;;;;8.63;7.80;;;;;;;;;;10263844;28;20480;-83
2022/06/21 01:19:33;;;;;;;9.20;8.30;;;;;;;;;;10264835;28;20420;-83
2022/06/21 01:24:46;;;;;;;10.32;9.30;;;;;;;;;;10260248;28;20410;-83
2022/06/21 01:29:52;;;;;;;10.43;9.43;;;;;;;;;;10261103;28;20778;-83
2022/06/21 01:34:54;;;;;;;10.10;9.20;;;;;;;;;;10270625;28;20915;-83
2022/06/21 01:40:01;;;;;;;13.80;9.13;;;;;;;;;;10268610;28;20432;-83
2022/06/21 01:45:08;;;;;;;10.05;9.05;;;;;;;;;;10265901;28;20503;-83
2022/06/21 01:50:11;;;;;;;11.27;9.70;;;;;;;;;;10263504;28;20414;-83
2022/06/21 01:55:17;;;;;;;11.05;9.93;;;;;;;;;;10264292;28;20865;-83
2022/06/21 02:00:21;;;;;;;11.20;10.10;;;;;;;;;;10266766;28;20438;-83
2022/06/21 02:05:26;;;;;;;11.90;10.73;;;;;;;;;;10275664;28;20533;-82
2022/06/21 02:10:35;;;;;;;11.63;10.43;;;;;;;;;;10264435;28;20405;-82
2022/06/21 02:15:42;;;;;;;11.25;10.18;;;;;;;;;;10254589;28;20428;-82
2022/06/21 02:20:47;;;;;;;12.82;10.80;;;;;;;;;;10267020;28;20425;-82
2022/06/21 02:25:51;;;;;;;12.18;10.82;;;;;;;;;;10261916;28;20410;-82
2022/06/21 02:30:56;;;;;;;10.85;9.75;;;;;;;;;;10268893;28;20403;-82
2022/06/21 02:36:01;;;;;;;14.47;9.73;;;;;;;;;;10260717;28;20428;-84
2022/06/21 02:41:09;;;;;;;11.43;9.48;;;;;;;;;;10247973;28;20939;-84
2022/06/21 02:46:18;;;;;;;10.90;9.73;;;;;;;;;;10266862;28;20418;-83
2022/06/21 02:51:24;;;;;;;10.67;9.57;;;;;;;;;;10265059;28;21202;-83
2022/06/21 02:56:32;;;;;;;10.93;9.83;;;;;;;;;;10273908;28;20430;-83
2022/06/21 03:01:38;;;;;;;10.77;9.30;;;;;;;;;;10274144;28;20493;-83
2022/06/21 03:06:40;;;;;;;11.60;10.40;;;;;;;;;;10272922;28;20789;-83
2022/06/21 03:11:45;;;;;;;11.45;10.30;;;;;;;;;;10267645;28;20400;-83
2022/06/21 03:16:50;;;;;;;11.70;10.52;;;;;;;;;;10256888;28;20510;-82
2022/06/21 03:21:52;;;;;;;15.23;11.90;;;;;;;;;;10270469;28;20462;-82
2022/06/21 03:27:00;;;;;;;14.75;11.90;;;;;;;;;;10272198;28;20469;-83
2022/06/21 03:32:04;;;;;;;13.23;11.80;;;;;;;;;;10263104;28;20418;-83
2022/06/21 03:37:07;;;;;;;15.82;12.90;;;;;;;;;;10272092;28;20783;-83
2022/06/21 03:42:09;;;;;;;15.98;13.15;;;;;;;;;;10258631;28;20408;-83
2022/06/21 03:47:18;;;;;;;15.77;14.05;;;;;;;;;;10269224;28;20418;-82
2022/06/21 03:57:47;;;;;;;14.77;12.73;;;;;;;;;;10254413;28;20430;-83
2022/06/21 04:02:56;;;;;;;15.20;13.63;;;;;;;;;;10260735;28;20414;-83
2022/06/21 04:08:03;;;;;;;14.10;12.52;;;;;;;;;;10247538;28;20430;-83
2022/06/21 04:13:13;;;;;;;12.37;11.13;;;;;;;;;;10256257;28;20408;-83
2022/06/21 04:18:24;;;;;;;12.93;11.48;;;;;;;;;;10257340;28;20810;-83
2022/06/21 04:23:32;;;;;;;12.95;11.48;;;;;;;;;;10255023;28;20442;-82
2022/06/21 04:28:39;;;;;;;14.10;12.23;;;;;;;;;;10245395;28;20765;-82
2022/06/21 04:33:46;;;;;;;20.67;14.38;;;;;;;;;;10262180;28;20513;-83
2022/06/21 04:38:55;;;;;;;19.05;15.23;;;;;;;;;;10254158;28;20417;-82
2022/06/21 04:44:01;;;;;;;16.73;15.02;;;;;;;;;;10253284;28;20734;-82
2022/06/21 04:49:13;;;;;;;16.20;14.60;;;;;;;;;;10258341;28;20418;-82
2022/06/21 04:54:22;;;;;;;18.67;14.20;;;;;;;;;;10260111;28;20510;-83
2022/06/21 04:59:27;;;;;;;16.02;14.38;;;;;;;;;;10258362;28;20450;-82
2022/06/21 05:04:33;;;;;;;15.90;13.80;;;;;;;;;;10257587;28;20930;-82
2022/06/21 05:09:36;;;;;;;15.35;13.82;;;;;;;;;;10257702;28;20507;-82
2022/06/21 05:14:47;;;;;;;14.57;13.18;;;;;;;;;;10259733;28;20426;-82
2022/06/21 05:19:53;;;;;;;15.80;14.20;;;;;;;;;;10258837;28;20600;-82
2022/06/21 05:24:56;;;;;;;17.17;13.13;;;;;;;;;;10257370;28;20404;-82
2022/06/21 05:30:04;;;;;;;12.82;11.52;;;;;;;;;;10259282;28;20420;-82
2022/06/21 05:35:14;;;;;;;13.18;11.82;;;;;;;;;;10258418;28;20428;-83
2022/06/21 05:40:24;;;;;;;15.73;13.03;;;;;;;;;;10268669;28;20486;-84
2022/06/21 05:45:32;;;;;;;12.15;10.85;;;;;;;;;;10270214;28;20422;-83
2022/06/21 05:50:36;;;;;;;12.20;10.90;;;;;;;;;;10267707;28;20752;-82
2022/06/21 05:55:42;;;;;;;10.90;9.80;;;;;;;;;;10261245;28;21000;-83
2022/06/21 06:00:47;;;;;;;10.53;8.67;;;;;;;;;;10263938;28;20412;-82
2022/06/21 06:05:50;;;;;;;9.60;8.13;;;;;;;;;;10268924;28;20422;-83
2022/06/21 06:10:53;;;;;;;11.05;9.05;;;;;;;;;;10260068;28;20412;-83
2022/06/21 06:15:59;;;;;;;9.23;7.80;;;;;;;;;;10264025;28;20531;-83
2022/06/21 06:21:06;;;;;;;8.60;7.70;;;;;;;;;;10267902;28;20904;-83
2022/06/21 06:26:13;;;;;;;8.55;7.43;;;;;;;;;;10260923;28;20805;-84
2022/06/21 06:31:20;;;;;;;8.25;7.10;;;;;;;;;;10262453;28;20420;-84
2022/06/21 06:36:27;;;;;;;7.95;6.78;;;;;;;;;;10267109;28;20520;-84
2022/06/21 06:41:33;;;;;;;9.93;6.90;;;;;;;;;;10264022;28;20495;-84
2022/06/21 06:46:38;;;;;;;9.52;6.65;;;;;;;;;;10254952;28;20517;-82
2022/06/21 06:51:55;;;;;;;8.93;6.55;;;;;;;;;;10265272;28;20415;-84
2022/06/21 06:57:06;;;;;;;8.30;6.55;;;;;;;;;;10262596;28;20701;-84
2022/06/21 07:02:22;;;;;;;10.30;6.60;;;;;;;;;;10260977;28;20411;-82
2022/06/21 07:07:30;;;;;;;7.82;6.40;;;;;;;;;;10260632;28;20412;-84
2022/06/21 07:12:32;;;;;;;7.18;6.43;;;;;;;;;;10260904;28;20442;-84
2022/06/21 07:17:39;;;;;;;7.75;6.80;;;;;;;;;;10260565;28;20430;-82
2022/06/21 07:22:43;;;;;;;6.35;5.78;;;;;;;;;;10261364;28;20414;-84
2022/06/21 07:27:49;;;;;;;8.30;6.50;;;;;;;;;;10262541;28;20441;-84
2022/06/21 07:32:55;;;;;;;9.77;6.30;;;;;;;;;;10258102;28;20406;-84
2022/06/21 07:38:08;;;;;;;10.85;6.10;;;;;;;;;;10262614;28;20434;-84
2022/06/21 07:43:15;;;;;;;9.18;6.50;;;;;;;;;;10265215;28;20449;-84
2022/06/21 07:48:21;;;;;;;9.82;8.68;;;;;;;;;;10255241;28;20479;-84
2022/06/21 07:53:28;;;;;;;14.25;9.90;;;;;;;;;;10258386;28;20438;-82
2022/06/21 07:58:34;;;;;;;10.53;7.83;;;;;;;;;;10256371;28;20951;-84
2022/06/21 08:09:13;;;;;;;9.10;6.45;;;;;;;;;;10258356;28;20402;-83
2022/06/21 08:14:16;;;;;;;9.53;6.40;;;;;;;;;;10258899;28;21180;-84
2022/06/21 08:19:24;;;;;;;12.40;7.13;;;;;;;;;;10261784;28;20425;-84
2022/06/21 08:24:36;;;;;;;10.88;6.88;;;;;;;;;;10262009;28;20430;-84
2022/06/21 08:29:44;;;;;;;8.43;6.50;;;;;;;;;;10258022;28;20419;-84
2022/06/21 08:34:49;;;;;;;8.77;6.73;;;;;;;;;;10260778;28;20525;-83
2022/06/21 08:39:56;;;;;;;8.27;6.50;;;;;;;;;;10252519;28;20555;-84
2022/06/21 08:45:42;;;;;;;8.43;6.40;;;;;;;;;;10262667;28;20489;-83
2022/06/21 08:51:25;;;;;;;9.02;5.90;;;;;;;;;;10258733;28;20516;-84
2022/06/21 08:56:40;;;;;;;7.13;6.43;;;;;;;;;;10217430;28;20422;-82
2022/06/21 09:01:47;;;;;;;7.05;6.25;;;;;;;;;;10257549;28;20405;-85
2022/06/21 09:07:01;;;;;;;7.13;5.93;;;;;;;;;;10263767;28;20799;-84
2022/06/21 09:12:12;;;;;;;8.23;6.30;;;;;;;;;;10259826;28;20548;-84
2022/06/21 09:17:20;;;;;;;8.93;6.70;;;;;;;;;;10263788;28;20732;-84
2022/06/21 09:22:32;;;;;;;7.68;6.88;;;;;;;;;;10266366;28;20436;-85
2022/06/21 09:27:41;;;;;;;8.68;7.13;;;;;;;;;;10255649;28;20442;-84
2022/06/21 09:32:55;;;;;;;7.63;6.70;;;;;;;;;;10267414;28;20918;-83
2022/06/21 09:38:09;;;;;;;9.00;6.90;;;;;;;;;;10264527;28;20536;-84
2022/06/21 09:43:25;;;;;;;10.30;6.93;;;;;;;;;;10266659;28;20406;-84
2022/06/21 09:48:36;;;;;;;7.82;6.97;;;;;;;;;;10273126;28;20504;-83
2022/06/21 09:53:59;;;;;;;8.90;7.27;;;;;;;;;;10266614;28;20441;-83
2022/06/21 09:59:16;;;;;;;8.30;7.10;;;;;;;;;;10266252;28;20445;-83
2022/06/21 10:04:28;;;;;;;9.43;7.60;;;;;;;;;;10264556;28;20414;-83
2022/06/21 10:09:43;;;;;;;8.98;8.07;;;;;;;;;;10271777;28;20406;-83
2022/06/21 10:15:14;;;;;;;8.77;7.73;;;;;;;;;;10265449;28;20481;-83
2022/06/21 10:20:34;;;;;;;9.57;8.60;;;;;;;;;;10266185;28;20450;-83
2022/06/21 10:26:02;;;;;;;8.63;7.63;;;;;;;;;;10263190;28;20445;-83
2022/06/21 10:31:31;;;;;;;8.05;7.35;;;;;;;;;;10262278;28;21327;-84
2022/06/21 10:36:48;;;;;;;8.03;7.33;;;;;;;;;;10262096;28;20444;-83
2022/06/21 10:47:40;;;;;;;8.30;7.50;;;;;;;;;;10273284;28;20434;-83
2022/06/21 10:53:12;;;;;;;10.90;7.05;;;;;;;;;;10263245;28;20985;-83
2022/06/21 10:58:32;;;;;;;9.73;6.82;;;;;;;;;;10262159;28;20421;-83
2022/06/21 11:03:58;;;;;;;7.75;7.05;;;;;;;;;;10258054;28;21255;-83
2022/06/21 11:09:07;;;;;;;9.63;7.25;;;;;;;;;;10258396;28;20435;-84
2022/06/21 11:14:17;;;;;;;8.02;7.22;;;;;;;;;;10254166;28;20458;-83
2022/06/21 11:19:30;;;;;;;10.43;7.33;;;;;;;;;;10255103;28;20435;-83
2022/06/21 11:24:42;;;;;;;7.97;7.18;;;;;;;;;;10256466;28;20463;-83
2022/06/21 11:29:51;;;;;;;9.40;6.90;;;;;;;;;;10252839;28;20513;-84
2022/06/21 11:35:02;;;;;;;14.23;7.82;;;;;;;;;;10252706;28;20462;-83
2022/06/21 11:40:19;;;;;;;14.52;8.20;;;;;;;;;;10256488;28;20918;-84
2022/06/21 11:45:40;;;;;;;8.98;7.65;;;;;;;;;;10252695;28;20526;-84
2022/06/21 11:50:53;;;;;;;8.57;7.50;;;;;;;;;;10260394;28;20529;-83
2022/06/21 11:55:59;;;;;;;8.37;7.23;;;;;;;;;;10256298;28;20926;-84
2022/06/21 12:01:12;;;;;;;11.65;7.47;;;;;;;;;;10248611;28;20428;-83
2022/06/21 12:06:29;;;;;;;9.98;7.90;;;;;;;;;;10256314;28;20514;-83
2022/06/21 12:11:43;;;;;;;8.85;7.50;;;;;;;;;;10260579;28;20442;-83
2022/06/21 12:16:53;;;;;;;8.32;7.50;;;;;;;;;;10258971;28;20515;-83
2022/06/21 12:22:03;;;;;;;9.63;7.47;;;;;;;;;;10265006;28;20743;-84
2022/06/21 12:27:06;;;;;;;9.43;7.85;;;;;;;;;;10265343;28;21359;-83
2022/06/21 12:32:18;;;;;;;9.33;7.10;;;;;;;;;;10263107;28;20418;-83
2022/06/21 12:37:26;;;;;;;8.80;7.90;;;;;;;;;;10264081;28;20438;-84
2022/06/21 12:42:55;;;;;;;8.60;7.10;;;;;;;;;;10266784;28;20504;-84
2022/06/21 12:48:16;;;;;;;9.77;7.45;;;;;;;;;;10295313;23;20453;-87
2022/06/21 12:53:39;;;;;;;13.10;7.37;;;;;;;;;;10259123;28;20415;-89
2022/06/21 12:59:04;;;;;;;8.98;7.00;;;;;;;;;;10259507;28;20526;-89
2022/06/21 13:04:28;;;;;;;8.50;7.20;;;;;;;;;;10261607;28;20418;-87
2022/06/21 13:09:57;;;;;;;10.68;7.13;;;;;;;;;;10261977;28;20507;-87
2022/06/21 13:15:26;;;;;;;8.57;7.20;;;;;;;;;;10245515;28;20420;-87
2022/06/21 13:20:41;;;;;;;9.27;6.72;;;;;;;;;;10257899;28;20422;-88
2022/06/21 13:25:53;;;;;;;9.68;6.90;;;;;;;;;;10254922;28;20494;-87
2022/06/21 13:31:00;;;;;;;8.70;7.07;;;;;;;;;;10246882;28;20521;-87
2022/06/21 13:36:06;;;;;;;7.57;6.77;;;;;;;;;;10250391;28;20438;-88
2022/06/21 13:46:46;;;;;;;8.95;7.30;;;;;;;;;;10252747;28;20678;-87
2022/06/21 13:51:52;;;;;;;7.27;6.47;;;;;;;;;;10216181;28;20505;-90
2022/06/21 13:57:02;;;;;;;7.87;6.77;;;;;;;;;;10221244;29;20463;-89
2022/06/21 14:02:12;;;;;;;7.53;6.60;;;;;;;;;;10219244;29;20439;-89
2022/06/21 14:07:23;;;;;;;8.20;7.13;;;;;;;;;;10200349;29;20413;-88
2022/06/21 14:12:33;;;;;;;9.93;7.05;;;;;;;;;;10201200;29;20448;-87
2022/06/21 14:17:40;;;;;;;12.80;7.70;;;;;;;;;;10202365;29;21088;-88
2022/06/21 14:22:52;;;;;;;11.33;7.60;;;;;;;;;;10215757;29;20419;-88
2022/06/21 14:28:05;;;;;;;9.85;7.20;;;;;;;;;;10202816;29;20411;-87
2022/06/21 14:33:14;;;;;;;10.38;7.55;;;;;;;;;;10216744;29;20421;-88
2022/06/21 14:38:22;;;;;;;9.48;7.45;;;;;;;;;;10215929;29;20457;-89
2022/06/21 14:43:33;;;;;;;9.77;7.13;;;;;;;;;;10216775;29;20720;-87
2022/06/21 14:48:45;;;;;;;10.77;7.10;;;;;;;;;;10237890;28;20433;-88
2022/06/21 14:54:08;;;;;;;8.38;6.85;;;;;;;;;;10246281;28;20425;-88
2022/06/21 14:59:29;;;;;;;11.20;7.82;;;;;;;;;;10255129;28;20517;-89
2022/06/21 15:04:39;;;;;;;9.50;7.55;;;;;;;;;;10250547;28;20504;-89
2022/06/21 15:09:46;;;;;;;8.85;7.47;;;;;;;;;;10259179;28;20430;-89
2022/06/21 15:14:56;;;;;;;9.57;8.00;;;;;;;;;;10243086;28;20469;-88
2022/06/21 15:20:07;;;;;;;11.93;8.50;;;;;;;;;;10255814;28;20505;-89
2022/06/21 15:25:21;;;;;;;7.78;7.07;;;;;;;;;;10245139;28;20531;-88
2022/06/21 15:30:29;;;;;;;11.18;7.35;;;;;;;;;;10249089;28;20433;-87
2022/06/21 15:35:34;;;;;;;9.40;7.57;;;;;;;;;;10260973;28;20538;-87
2022/06/21 15:40:45;;;;;;;13.68;8.35;;;;;;;;;;10255710;28;20487;-88
2022/06/21 15:45:52;;;;;;;8.95;6.90;;;;;;;;;;10260338;28;21096;-82
2022/06/21 15:51:11;;;;;;;9.23;7.50;;;;;;;;;;10264643;28;20425;-86
2022/06/21 15:56:23;;;;;;;7.72;6.80;;;;;;;;;;10268620;28;20434;-87
2022/06/21 16:01:30;;;;;;;8.23;7.47;;;;;;;;;;10262773;28;20442;-87
2022/06/21 16:06:41;;;;;;;7.65;6.90;;;;;;;;;;10265605;28;20925;-87
2022/06/21 16:11:54;;;;;;;11.38;7.00;;;;;;;;;;10261179;28;20658;-87
2022/06/21 16:17:05;;;;;;;9.75;7.30;;;;;;;;;;10259780;28;20436;-88
2022/06/21 16:22:08;;;;;;;8.45;7.35;;;;;;;;;;10264484;28;20819;-87
2022/06/21 16:27:19;;;;;;;9.48;7.43;;;;;;;;;;10259847;28;20442;-86
2022/06/21 16:37:51;;;;;;;10.10;7.83;;;;;;;;;;10257232;28;20427;-87
2022/06/21 16:43:01;;;;;;;8.55;7.75;;;;;;;;;;10257011;28;20732;-87
2022/06/21 16:48:10;;;;;;;9.25;7.45;;;;;;;;;;10265148;28;20461;-88
2022/06/21 16:53:20;;;;;;;9.80;7.43;;;;;;;;;;10257560;28;20481;-88
2022/06/21 16:58:30;;;;;;;9.60;6.60;;;;;;;;;;10256429;28;20780;-87
2022/06/21 17:03:44;;;;;;;9.13;6.63;;;;;;;;;;10258150;28;20513;-88
2022/06/21 17:08:45;;;;;;;7.67;6.80;;;;;;;;;;10258638;28;20503;-88
2022/06/21 17:13:48;;;;;;;8.40;7.30;;;;;;;;;;10255024;28;20436;-87
2022/06/21 17:18:59;;;;;;;8.20;7.25;;;;;;;;;;10237433;28;20857;-87
2022/06/21 17:24:13;;;;;;;9.52;6.95;;;;;;;;;;10260774;28;21588;-88
2022/06/21 17:29:28;;;;;;;7.45;6.72;;;;;;;;;;10253222;28;20415;-87
2022/06/21 17:34:39;;;;;;;10.40;7.13;;;;;;;;;;10259318;28;20421;-89
2022/06/21 17:39:50;;;;;;;9.35;7.22;;;;;;;;;;10254798;28;20984;-88
2022/06/21 17:44:57;;;;;;;8.93;7.37;;;;;;;;;;10260069;28;20400;-87
2022/06/21 17:50:05;;;;;;;7.88;7.18;;;;;;;;;;10251799;28;20425;-86
2022/06/21 17:55:15;;;;;;;10.88;6.97;;;;;;;;;;10254569;28;20450;-87
2022/06/21 18:00:22;;;;;;;9.00;6.95;;;;;;;;;;10256485;28;20515;-86
2022/06/21 18:05:43;;;;;;;8.57;7.13;;;;;;;;;;10248347;28;20426;-86
2022/06/21 18:11:00;;;;;;;8.60;6.57;;;;;;;;;;10248926;28;20716;-86
2022/06/21 18:16:19;;;;;;;8.23;7.40;;;;;;;;;;10248058;28;20430;-86
2022/06/21 18:21:35;;;;;;;9.55;7.10;;;;;;;;;;10251749;28;20414;-86
2022/06/21 18:26:45;;;;;;;9.33;7.40;;;;;;;;;;10249372;28;20878;-86
2022/06/21 18:32:00;;;;;;;9.45;6.85;;;;;;;;;;10257874;28;20453;-86
2022/06/21 18:37:16;;;;;;;7.75;6.05;;;;;;;;;;10256631;28;20427;-85
2022/06/21 18:42:29;;;;;;;9.05;6.00;;;;;;;;;;10260417;28;20422;-87
2022/06/21 18:47:39;;;;;;;7.78;6.20;;;;;;;;;;10259738;28;20508;-86
2022/06/21 18:52:50;;;;;;;9.07;5.85;;;;;;;;;;10250412;28;20439;-87
2022/06/21 18:58:02;;;;;;;11.50;6.67;;;;;;;;;;10260699;28;20434;-88
2022/06/21 19:03:10;;;;;;;9.85;5.88;;;;;;;;;;10258587;28;20434;-85
2022/06/21 19:08:30;;;;;;;10.32;5.78;;;;;;;;;;10257685;28;20490;-85
2022/06/21 19:13:37;;;;;;;7.87;5.50;;;;;;;;;;10256646;28;20424;-86
2022/06/21 19:19:13;;;;;;;8.55;6.10;;;;;;;;;;10254355;28;20441;-85
2022/06/21 19:24:43;;;;;;;8.93;6.30;;;;;;;;;;10252849;28;20498;-84
2022/06/21 19:30:20;;;;;;;7.70;7.00;;;;;;;;;;10254742;28;21025;-82
2022/06/21 19:35:52;;;;;;;8.80;6.38;;;;;;;;;;10237277;28;20428;-83
2022/06/21 19:41:12;;;;;;;9.05;6.55;;;;;;;;;;10241815;28;20440;-84
2022/06/21 19:46:19;;;;;;;10.52;6.72;;;;;;;;;;10246901;28;20418;-84
2022/06/21 19:51:26;;;;;;;7.57;6.57;;;;;;;;;;10248849;28;20853;-85
2022/06/21 19:56:49;;;;;;;8.90;6.78;;;;;;;;;;10249741;28;20936;-84
2022/06/21 20:02:11;;;;;;;12.88;7.57;;;;;;;;;;10249415;28;20430;-84
2022/06/21 20:07:14;;;;;;;12.03;7.33;;;;;;;;;;10250874;28;21029;-83
2022/06/21 20:12:23;;;;;;;9.20;6.70;;;;;;;;;;10255040;28;20773;-85
2022/06/21 20:17:30;;;;;;;12.70;6.60;;;;;;;;;;10244877;28;20509;-84
2022/06/21 20:22:44;;;;;;;10.65;6.57;;;;;;;;;;10253172;28;20515;-84
2022/06/21 20:28:06;;;;;;;8.03;6.00;;;;;;;;;;10245695;28;20426;-85
2022/06/21 20:33:17;;;;;;;6.32;5.28;;;;;;;;;;10246371;28;20513;-83
2022/06/21 20:38:24;;;;;;;7.80;6.20;;;;;;;;;;10245396;28;20541;-85
2022/06/21 20:43:31;;;;;;;9.43;5.83;;;;;;;;;;10245597;28;20901;-84
2022/06/21 20:48:59;;;;;;;7.53;5.67;;;;;;;;;;10249635;28;20427;-83
2022/06/21 20:54:24;;;;;;;7.93;5.47;;;;;;;;;;10235138;28;20416;-83
2022/06/21 20:59:33;;;;;;;8.53;5.50;;;;;;;;;;10244164;28;20892;-85
2022/06/21 21:04:42;;;;;;;8.37;5.80;;;;;;;;;;10252130;28;20430;-84
2022/06/21 21:09:49;;;;;;;6.65;5.43;;;;;;;;;;10261065;28;20489;-84
2022/06/21 21:14:54;;;;;;;7.80;6.37;;;;;;;;;;10258229;28;21006;-85
2022/06/21 21:20:00;;;;;;;8.02;6.50;;;;;;;;;;10255932;28;20541;-84
2022/06/21 21:25:08;;;;;;;10.07;7.45;;;;;;;;;;10256720;28;20516;-84
2022/06/21 21:30:14;;;;;;;9.00;7.75;;;;;;;;;;10254581;28;20785;-85
2022/06/21 21:35:24;;;;;;;11.33;8.00;;;;;;;;;;10256502;28;20768;-84
2022/06/21 21:40:42;;;;;;;10.88;9.63;;;;;;;;;;10248593;28;20434;-84
2022/06/21 21:45:55;;;;;;;9.57;8.70;;;;;;;;;;10252350;28;20412;-85
2022/06/21 21:50:57;;;;;;;10.95;7.85;;;;;;;;;;10252356;28;20424;-84
2022/06/21 21:55:59;;;;;;;13.02;8.93;;;;;;;;;;10247841;28;20940;-84
2022/06/21 22:01:08;;;;;;;12.77;9.60;;;;;;;;;;10252155;28;20452;-85
2022/06/21 22:06:24;;;;;;;12.07;10.60;;;;;;;;;;10249810;28;20428;-84
2022/06/21 22:11:37;;;;;;;11.70;10.50;;;;;;;;;;10263057;28;20601;-84
2022/06/21 22:16:45;;;;;;;20.30;12.90;;;;;;;;;;10256859;28;20436;-85
2022/06/21 22:21:47;;;;;;;12.75;11.20;;;;;;;;;;10254364;28;20906;-85
2022/06/21 22:26:50;;;;;;;18.87;14.20;;;;;;;;;;10254141;28;20473;-87
2022/06/21 22:31:59;;;;;;;16.33;14.27;;;;;;;;;;10262112;28;20952;-86
2022/06/21 22:37:04;;;;;;;19.10;15.35;;;;;;;;;;10265847;28;20755;-85
2022/06/21 22:42:06;;;;;;;19.30;17.25;;;;;;;;;;10264128;28;20499;-86
2022/06/21 22:47:14;;;;;;;19.08;16.17;;;;;;;;;;10262569;28;20501;-85
2022/06/21 22:52:22;;;;;;;19.03;15.83;;;;;;;;;;10264815;28;20418;-87
2022/06/21 22:57:27;;;;;;;20.83;17.58;;;;;;;;;;10263983;28;20449;-86
2022/06/21 23:02:39;;;;;;;22.00;18.80;;;;;;;;;;10261977;28;20497;-87
2022/06/21 23:07:44;;;;;;;20.30;18.20;;;;;;;;;;10260506;28;20402;-86
2022/06/21 23:13:02;;;;;;;20.48;18.27;;;;;;;;;;10267055;28;20421;-86
2022/06/21 23:18:05;;;;;;;19.70;17.60;;;;;;;;;;10259249;28;20514;-85
2022/06/21 23:23:09;;;;;;;21.80;17.00;;;;;;;;;;10259213;28;20986;-86
2022/06/21 23:28:13;;;;;;;17.85;15.68;;;;;;;;;;10264033;28;20414;-85
2022/06/21 23:33:18;;;;;;;18.10;16.00;;;;;;;;;;10265185;28;20487;-85
2022/06/21 23:38:24;;;;;;;16.42;13.82;;;;;;;;;;10255226;28;20428;-85
2022/06/21 23:43:30;;;;;;;16.55;11.73;;;;;;;;;;10259242;28;20435;-85
2022/06/21 23:48:34;;;;;;;15.55;11.10;;;;;;;;;;10264845;28;20426;-85
2022/06/21 23:53:37;;;;;;;16.05;10.50;;;;;;;;;;10268345;28;20416;-86
2022/06/21 23:58:39;;;;;;;14.43;10.10;;;;;;;;;;10264610;28;20430;-84
